sensor_id;sensor_type;location;lat;lon;timestamp;P1;durP1;ratioP1;P2;durP2;ratioP2
47539;SDS011;33280;52.152;21.052;2023-04-25T00:00:16;17.20;;;12.20;;
47539;SDS011;33280;52.152;21.052;2023-04-25T00:02:43;18.03;;;12.47;;
47539;SDS011;33280;52.152;21.052;2023-04-25T00:05:10;17.87;;;12.30;;
47539;SDS011;33280;52.152;21.052;2023-04-25T00:07:38;19.90;;;13.40;;
47539;SDS011;33280;52.152;21.052;2023-04-25T00:10:06;16.70;;;12.07;;
47539;SDS011;33280;52.152;21.052;2023-04-25T00:12:34;19.13;;;13.50;;
47539;SDS011;33280;52.152;21.052;2023-04-25T00:15:02;17.63;;;12.70;;
47539;SDS011;33280;52.152;21.052;2023-04-25T00:17:29;19.50;;;13.37;;
47539;SDS011;33280;52.152;21.052;2023-04-25T00:19:56;19.00;;;12.20;;
47539;SDS011;33280;52.152;21.052;2023-04-25T00:22:24;20.47;;;12.90;;
47539;SDS011;33280;52.152;21.052;2023-04-25T00:24:51;17.60;;;12.50;;
47539;SDS011;33280;52.152;21.052;2023-04-25T00:27:19;19.23;;;13.30;;
47539;SDS011;33280;52.152;21.052;2023-04-25T00:29:46;19.23;;;12.97;;
47539;SDS011;33280;52.152;21.052;2023-04-25T00:32:13;18.13;;;12.33;;
47539;SDS011;33280;52.152;21.052;2023-04-25T00:34:39;17.63;;;12.30;;
47539;SDS011;33280;52.152;21.052;2023-04-25T00:37:06;21.57;;;12.77;;
47539;SDS011;33280;52.152;21.052;2023-04-25T00:39:33;18.13;;;11.93;;
47539;SDS011;33280;52.152;21.052;2023-04-25T00:42:00;19.83;;;13.23;;
47539;SDS011;33280;52.152;21.052;2023-04-25T00:44:29;18.77;;;12.00;;
47539;SDS011;33280;52.152;21.052;2023-04-25T00:46:56;17.00;;;11.83;;
47539;SDS011;33280;52.152;21.052;2023-04-25T00:49:24;19.43;;;11.80;;
47539;SDS011;33280;52.152;21.052;2023-04-25T00:51:51;21.00;;;12.87;;
47539;SDS011;33280;52.152;21.052;2023-04-25T00:54:17;19.20;;;12.60;;
47539;SDS011;33280;52.152;21.052;2023-04-25T00:56:44;18.83;;;12.80;;
47539;SDS011;33280;52.152;21.052;2023-04-25T00:59:11;19.00;;;12.43;;
47539;SDS011;33280;52.152;21.052;2023-04-25T01:01:39;18.30;;;12.60;;
47539;SDS011;33280;52.152;21.052;2023-04-25T01:04:07;18.57;;;12.93;;
47539;SDS011;33280;52.152;21.052;2023-04-25T01:06:34;19.00;;;13.23;;
47539;SDS011;33280;52.152;21.052;2023-04-25T01:09:02;19.20;;;13.43;;
47539;SDS011;33280;52.152;21.052;2023-04-25T01:11:29;17.90;;;12.80;;
47539;SDS011;33280;52.152;21.052;2023-04-25T01:13:56;18.87;;;12.77;;
47539;SDS011;33280;52.152;21.052;2023-04-25T01:16:23;20.57;;;13.30;;
47539;SDS011;33280;52.152;21.052;2023-04-25T01:18:51;19.30;;;13.17;;
47539;SDS011;33280;52.152;21.052;2023-04-25T01:21:18;20.37;;;13.30;;
47539;SDS011;33280;52.152;21.052;2023-04-25T01:23:45;17.70;;;13.53;;
47539;SDS011;33280;52.152;21.052;2023-04-25T01:26:12;18.90;;;13.30;;
47539;SDS011;33280;52.152;21.052;2023-04-25T01:28:39;19.57;;;13.53;;
47539;SDS011;33280;52.152;21.052;2023-04-25T01:31:07;21.23;;;13.90;;
47539;SDS011;33280;52.152;21.052;2023-04-25T01:33:35;22.13;;;14.37;;
47539;SDS011;33280;52.152;21.052;2023-04-25T01:36:02;18.43;;;12.97;;
47539;SDS011;33280;52.152;21.052;2023-04-25T01:38:29;20.27;;;13.30;;
47539;SDS011;33280;52.152;21.052;2023-04-25T01:40:56;20.10;;;13.63;;
47539;SDS011;33280;52.152;21.052;2023-04-25T01:43:23;18.63;;;13.50;;
47539;SDS011;33280;52.152;21.052;2023-04-25T01:45:52;19.90;;;13.93;;
47539;SDS011;33280;52.152;21.052;2023-04-25T01:48:19;19.03;;;13.80;;
47539;SDS011;33280;52.152;21.052;2023-04-25T01:50:46;19.17;;;13.00;;
47539;SDS011;33280;52.152;21.052;2023-04-25T01:53:13;20.80;;;13.67;;
47539;SDS011;33280;52.152;21.052;2023-04-25T01:55:41;21.73;;;13.37;;
47539;SDS011;33280;52.152;21.052;2023-04-25T01:58:08;20.13;;;13.20;;
47539;SDS011;33280;52.152;21.052;2023-04-25T02:00:39;19.70;;;12.60;;
47539;SDS011;33280;52.152;21.052;2023-04-25T02:03:07;21.43;;;12.83;;
47539;SDS011;33280;52.152;21.052;2023-04-25T02:05:35;19.53;;;11.87;;
47539;SDS011;33280;52.152;21.052;2023-04-25T02:08:06;18.13;;;12.57;;
47539;SDS011;33280;52.152;21.052;2023-04-25T02:10:34;17.33;;;12.27;;
47539;SDS011;33280;52.152;21.052;2023-04-25T02:13:01;18.03;;;12.43;;
47539;SDS011;33280;52.152;21.052;2023-04-25T02:15:29;17.13;;;12.07;;
47539;SDS011;33280;52.152;21.052;2023-04-25T02:17:56;19.33;;;12.20;;
47539;SDS011;33280;52.152;21.052;2023-04-25T02:20:24;16.70;;;11.90;;
47539;SDS011;33280;52.152;21.052;2023-04-25T02:22:51;16.23;;;11.63;;
47539;SDS011;33280;52.152;21.052;2023-04-25T02:25:19;17.67;;;11.47;;
47539;SDS011;33280;52.152;21.052;2023-04-25T02:27:47;17.03;;;11.50;;
47539;SDS011;33280;52.152;21.052;2023-04-25T02:30:14;17.87;;;11.00;;
47539;SDS011;33280;52.152;21.052;2023-04-25T02:32:41;20.23;;;12.63;;
47539;SDS011;33280;52.152;21.052;2023-04-25T02:35:09;18.93;;;11.67;;
47539;SDS011;33280;52.152;21.052;2023-04-25T02:37:37;18.37;;;11.13;;
47539;SDS011;33280;52.152;21.052;2023-04-25T02:40:05;20.63;;;11.93;;
47539;SDS011;33280;52.152;21.052;2023-04-25T02:42:32;16.07;;;10.90;;
47539;SDS011;33280;52.152;21.052;2023-04-25T02:44:59;16.23;;;10.93;;
47539;SDS011;33280;52.152;21.052;2023-04-25T02:47:26;17.37;;;11.13;;
47539;SDS011;33280;52.152;21.052;2023-04-25T02:49:53;17.87;;;11.07;;
47539;SDS011;33280;52.152;21.052;2023-04-25T02:52:20;19.17;;;11.37;;
47539;SDS011;33280;52.152;21.052;2023-04-25T02:54:47;16.60;;;10.73;;
47539;SDS011;33280;52.152;21.052;2023-04-25T02:57:14;16.40;;;10.83;;
47539;SDS011;33280;52.152;21.052;2023-04-25T02:59:41;18.27;;;10.73;;
47539;SDS011;33280;52.152;21.052;2023-04-25T03:02:08;17.03;;;11.00;;
47539;SDS011;33280;52.152;21.052;2023-04-25T03:04:36;16.10;;;11.07;;
47539;SDS011;33280;52.152;21.052;2023-04-25T03:07:03;17.23;;;11.00;;
47539;SDS011;33280;52.152;21.052;2023-04-25T03:09:30;15.93;;;11.60;;
47539;SDS011;33280;52.152;21.052;2023-04-25T03:11:57;16.93;;;11.57;;
47539;SDS011;33280;52.152;21.052;2023-04-25T03:14:24;18.47;;;11.97;;
47539;SDS011;33280;52.152;21.052;2023-04-25T03:16:51;15.23;;;11.07;;
47539;SDS011;33280;52.152;21.052;2023-04-25T03:19:18;15.70;;;10.87;;
47539;SDS011;33280;52.152;21.052;2023-04-25T03:21:44;18.67;;;11.70;;
47539;SDS011;33280;52.152;21.052;2023-04-25T03:24:11;17.23;;;10.93;;
47539;SDS011;33280;52.152;21.052;2023-04-25T03:26:38;18.10;;;11.23;;
47539;SDS011;33280;52.152;21.052;2023-04-25T03:29:05;18.13;;;11.00;;
47539;SDS011;33280;52.152;21.052;2023-04-25T03:31:32;14.67;;;9.73;;
47539;SDS011;33280;52.152;21.052;2023-04-25T03:33:59;15.37;;;10.20;;
47539;SDS011;33280;52.152;21.052;2023-04-25T03:36:26;14.07;;;9.60;;
47539;SDS011;33280;52.152;21.052;2023-04-25T03:38:53;15.10;;;9.67;;
47539;SDS011;33280;52.152;21.052;2023-04-25T03:41:20;15.13;;;9.63;;
47539;SDS011;33280;52.152;21.052;2023-04-25T03:43:48;14.23;;;9.53;;
47539;SDS011;33280;52.152;21.052;2023-04-25T03:46:15;14.40;;;10.23;;
47539;SDS011;33280;52.152;21.052;2023-04-25T03:48:42;15.43;;;9.40;;
47539;SDS011;33280;52.152;21.052;2023-04-25T03:51:09;15.60;;;9.57;;
47539;SDS011;33280;52.152;21.052;2023-04-25T03:53:36;14.40;;;8.77;;
47539;SDS011;33280;52.152;21.052;2023-04-25T03:56:03;13.37;;;9.23;;
47539;SDS011;33280;52.152;21.052;2023-04-25T03:58:30;12.93;;;8.70;;
47539;SDS011;33280;52.152;21.052;2023-04-25T04:00:57;12.53;;;8.57;;
47539;SDS011;33280;52.152;21.052;2023-04-25T04:03:24;12.03;;;8.30;;
47539;SDS011;33280;52.152;21.052;2023-04-25T04:05:52;11.67;;;7.67;;
47539;SDS011;33280;52.152;21.052;2023-04-25T04:08:20;13.23;;;7.87;;
47539;SDS011;33280;52.152;21.052;2023-04-25T04:10:47;12.17;;;7.30;;
47539;SDS011;33280;52.152;21.052;2023-04-25T04:13:13;11.83;;;7.93;;
47539;SDS011;33280;52.152;21.052;2023-04-25T04:15:40;12.57;;;7.73;;
47539;SDS011;33280;52.152;21.052;2023-04-25T04:18:07;10.27;;;7.80;;
47539;SDS011;33280;52.152;21.052;2023-04-25T04:20:34;10.40;;;7.50;;
47539;SDS011;33280;52.152;21.052;2023-04-25T04:23:01;12.73;;;7.83;;
47539;SDS011;33280;52.152;21.052;2023-04-25T04:25:28;12.30;;;7.70;;
47539;SDS011;33280;52.152;21.052;2023-04-25T04:27:56;11.37;;;7.53;;
47539;SDS011;33280;52.152;21.052;2023-04-25T04:30:23;12.37;;;8.10;;
47539;SDS011;33280;52.152;21.052;2023-04-25T04:32:51;11.37;;;7.60;;
47539;SDS011;33280;52.152;21.052;2023-04-25T04:35:18;11.83;;;7.80;;
47539;SDS011;33280;52.152;21.052;2023-04-25T04:37:45;11.30;;;7.53;;
47539;SDS011;33280;52.152;21.052;2023-04-25T04:40:12;12.90;;;8.27;;
47539;SDS011;33280;52.152;21.052;2023-04-25T04:42:42;11.73;;;7.87;;
47539;SDS011;33280;52.152;21.052;2023-04-25T04:45:09;11.53;;;8.27;;
47539;SDS011;33280;52.152;21.052;2023-04-25T04:47:36;15.07;;;8.17;;
47539;SDS011;33280;52.152;21.052;2023-04-25T04:50:06;29.07;;;11.33;;
47539;SDS011;33280;52.152;21.052;2023-04-25T04:52:35;11.53;;;8.50;;
47539;SDS011;33280;52.152;21.052;2023-04-25T04:55:04;12.43;;;8.60;;
47539;SDS011;33280;52.152;21.052;2023-04-25T04:57:34;12.03;;;8.47;;
47539;SDS011;33280;52.152;21.052;2023-04-25T05:00:02;10.87;;;7.80;;
47539;SDS011;33280;52.152;21.052;2023-04-25T05:02:31;11.23;;;8.03;;
47539;SDS011;33280;52.152;21.052;2023-04-25T05:04:58;12.17;;;8.67;;
47539;SDS011;33280;52.152;21.052;2023-04-25T05:07:25;11.17;;;8.53;;
47539;SDS011;33280;52.152;21.052;2023-04-25T05:09:52;12.30;;;9.07;;
47539;SDS011;33280;52.152;21.052;2023-04-25T05:12:18;11.87;;;8.80;;
47539;SDS011;33280;52.152;21.052;2023-04-25T05:14:45;11.40;;;8.77;;
47539;SDS011;33280;52.152;21.052;2023-04-25T05:17:12;13.70;;;9.10;;
47539;SDS011;33280;52.152;21.052;2023-04-25T05:19:39;13.30;;;9.63;;
47539;SDS011;33280;52.152;21.052;2023-04-25T05:22:06;12.10;;;9.43;;
47539;SDS011;33280;52.152;21.052;2023-04-25T05:24:33;15.77;;;10.50;;
47539;SDS011;33280;52.152;21.052;2023-04-25T05:27:00;14.97;;;10.40;;
47539;SDS011;33280;52.152;21.052;2023-04-25T05:29:27;14.13;;;9.87;;
47539;SDS011;33280;52.152;21.052;2023-04-25T05:31:53;13.40;;;10.07;;
47539;SDS011;33280;52.152;21.052;2023-04-25T05:34:20;14.93;;;10.50;;
47539;SDS011;33280;52.152;21.052;2023-04-25T05:36:47;16.03;;;10.83;;
47539;SDS011;33280;52.152;21.052;2023-04-25T05:39:15;14.90;;;10.57;;
47539;SDS011;33280;52.152;21.052;2023-04-25T05:41:43;14.60;;;10.37;;
47539;SDS011;33280;52.152;21.052;2023-04-25T05:44:10;15.07;;;10.10;;
47539;SDS011;33280;52.152;21.052;2023-04-25T05:46:37;13.87;;;9.73;;
47539;SDS011;33280;52.152;21.052;2023-04-25T05:49:05;14.83;;;10.03;;
47539;SDS011;33280;52.152;21.052;2023-04-25T05:51:32;14.10;;;10.13;;
47539;SDS011;33280;52.152;21.052;2023-04-25T05:53:59;13.43;;;9.97;;
47539;SDS011;33280;52.152;21.052;2023-04-25T05:56:26;14.07;;;10.33;;
47539;SDS011;33280;52.152;21.052;2023-04-25T05:58:53;13.93;;;9.73;;
47539;SDS011;33280;52.152;21.052;2023-04-25T06:01:20;14.63;;;10.10;;
47539;SDS011;33280;52.152;21.052;2023-04-25T06:03:47;15.10;;;11.07;;
47539;SDS011;33280;52.152;21.052;2023-04-25T06:06:15;14.77;;;11.10;;
47539;SDS011;33280;52.152;21.052;2023-04-25T06:08:42;13.17;;;9.50;;
47539;SDS011;33280;52.152;21.052;2023-04-25T06:11:09;13.80;;;9.67;;
47539;SDS011;33280;52.152;21.052;2023-04-25T06:13:36;12.90;;;9.47;;
47539;SDS011;33280;52.152;21.052;2023-04-25T06:16:03;14.93;;;9.90;;
47539;SDS011;33280;52.152;21.052;2023-04-25T06:18:36;15.40;;;9.93;;
47539;SDS011;33280;52.152;21.052;2023-04-25T06:21:04;14.83;;;10.20;;
47539;SDS011;33280;52.152;21.052;2023-04-25T06:23:31;18.63;;;12.77;;
47539;SDS011;33280;52.152;21.052;2023-04-25T06:25:58;16.97;;;10.17;;
47539;SDS011;33280;52.152;21.052;2023-04-25T06:28:25;16.03;;;10.43;;
47539;SDS011;33280;52.152;21.052;2023-04-25T06:30:52;16.30;;;11.30;;
47539;SDS011;33280;52.152;21.052;2023-04-25T06:33:22;14.10;;;10.70;;
47539;SDS011;33280;52.152;21.052;2023-04-25T06:35:53;16.13;;;11.10;;
47539;SDS011;33280;52.152;21.052;2023-04-25T06:38:20;17.83;;;12.40;;
47539;SDS011;33280;52.152;21.052;2023-04-25T06:40:47;18.30;;;12.30;;
47539;SDS011;33280;52.152;21.052;2023-04-25T06:43:14;18.23;;;13.03;;
47539;SDS011;33280;52.152;21.052;2023-04-25T06:45:41;17.13;;;11.17;;
47539;SDS011;33280;52.152;21.052;2023-04-25T06:48:10;15.60;;;11.33;;
47539;SDS011;33280;52.152;21.052;2023-04-25T06:50:37;15.97;;;10.70;;
47539;SDS011;33280;52.152;21.052;2023-04-25T06:53:04;12.50;;;9.43;;
47539;SDS011;33280;52.152;21.052;2023-04-25T06:55:31;14.03;;;10.07;;
47539;SDS011;33280;52.152;21.052;2023-04-25T06:57:58;15.13;;;10.07;;
47539;SDS011;33280;52.152;21.052;2023-04-25T07:00:25;13.67;;;9.87;;
47539;SDS011;33280;52.152;21.052;2023-04-25T07:02:52;14.57;;;9.70;;
47539;SDS011;33280;52.152;21.052;2023-04-25T07:05:19;14.23;;;9.77;;
47539;SDS011;33280;52.152;21.052;2023-04-25T07:07:46;14.70;;;10.23;;
47539;SDS011;33280;52.152;21.052;2023-04-25T07:10:13;18.50;;;10.97;;
47539;SDS011;33280;52.152;21.052;2023-04-25T07:12:40;14.70;;;10.90;;
47539;SDS011;33280;52.152;21.052;2023-04-25T07:15:07;14.63;;;10.73;;
47539;SDS011;33280;52.152;21.052;2023-04-25T07:17:36;15.73;;;10.07;;
47539;SDS011;33280;52.152;21.052;2023-04-25T07:20:04;13.53;;;8.97;;
47539;SDS011;33280;52.152;21.052;2023-04-25T07:22:35;13.97;;;9.50;;
47539;SDS011;33280;52.152;21.052;2023-04-25T07:25:03;13.17;;;9.50;;
47539;SDS011;33280;52.152;21.052;2023-04-25T07:27:30;13.20;;;9.43;;
47539;SDS011;33280;52.152;21.052;2023-04-25T07:29:57;12.03;;;8.97;;
47539;SDS011;33280;52.152;21.052;2023-04-25T07:32:25;10.80;;;8.27;;
47539;SDS011;33280;52.152;21.052;2023-04-25T07:34:53;11.20;;;7.73;;
47539;SDS011;33280;52.152;21.052;2023-04-25T07:37:20;11.00;;;8.60;;
47539;SDS011;33280;52.152;21.052;2023-04-25T07:39:47;11.80;;;8.53;;
47539;SDS011;33280;52.152;21.052;2023-04-25T07:42:14;14.60;;;9.05;;
47539;SDS011;33280;52.152;21.052;2023-04-25T07:44:41;11.17;;;8.27;;
47539;SDS011;33280;52.152;21.052;2023-04-25T07:47:09;12.10;;;7.77;;
47539;SDS011;33280;52.152;21.052;2023-04-25T07:49:36;10.37;;;8.00;;
47539;SDS011;33280;52.152;21.052;2023-04-25T07:52:04;11.10;;;8.10;;
47539;SDS011;33280;52.152;21.052;2023-04-25T07:54:32;14.87;;;8.50;;
47539;SDS011;33280;52.152;21.052;2023-04-25T07:56:59;10.90;;;7.93;;
47539;SDS011;33280;52.152;21.052;2023-04-25T07:59:26;12.17;;;8.40;;
47539;SDS011;33280;52.152;21.052;2023-04-25T08:01:55;9.57;;;8.07;;
47539;SDS011;33280;52.152;21.052;2023-04-25T08:04:24;10.00;;;7.80;;
47539;SDS011;33280;52.152;21.052;2023-04-25T08:06:53;10.30;;;8.07;;
47539;SDS011;33280;52.152;21.052;2023-04-25T08:09:23;9.47;;;7.00;;
47539;SDS011;33280;52.152;21.052;2023-04-25T08:11:50;10.03;;;7.30;;
47539;SDS011;33280;52.152;21.052;2023-04-25T08:14:17;11.87;;;7.63;;
47539;SDS011;33280;52.152;21.052;2023-04-25T08:16:44;9.73;;;7.33;;
47539;SDS011;33280;52.152;21.052;2023-04-25T08:19:10;8.90;;;7.10;;
47539;SDS011;33280;52.152;21.052;2023-04-25T08:21:38;8.43;;;6.80;;
47539;SDS011;33280;52.152;21.052;2023-04-25T08:24:05;8.88;;;7.40;;
47539;SDS011;33280;52.152;21.052;2023-04-25T08:26:32;8.50;;;6.13;;
47539;SDS011;33280;52.152;21.052;2023-04-25T08:29:00;8.50;;;5.70;;
47539;SDS011;33280;52.152;21.052;2023-04-25T08:31:27;7.57;;;5.30;;
47539;SDS011;33280;52.152;21.052;2023-04-25T08:33:54;7.78;;;5.32;;
47539;SDS011;33280;52.152;21.052;2023-04-25T08:36:21;6.77;;;5.23;;
47539;SDS011;33280;52.152;21.052;2023-04-25T08:39:04;7.60;;;5.37;;
47539;SDS011;33280;52.152;21.052;2023-04-25T08:41:31;7.30;;;5.93;;
47539;SDS011;33280;52.152;21.052;2023-04-25T08:43:58;7.67;;;5.63;;
47539;SDS011;33280;52.152;21.052;2023-04-25T08:46:27;7.23;;;5.70;;
47539;SDS011;33280;52.152;21.052;2023-04-25T08:48:59;9.73;;;5.70;;
47539;SDS011;33280;52.152;21.052;2023-04-25T08:51:29;7.67;;;5.70;;
47539;SDS011;33280;52.152;21.052;2023-04-25T08:54:11;9.23;;;5.87;;
47539;SDS011;33280;52.152;21.052;2023-04-25T08:56:45;8.70;;;6.00;;
47539;SDS011;33280;52.152;21.052;2023-04-25T08:59:14;8.57;;;6.00;;
47539;SDS011;33280;52.152;21.052;2023-04-25T09:01:41;7.87;;;6.13;;
47539;SDS011;33280;52.152;21.052;2023-04-25T09:04:08;8.90;;;6.67;;
47539;SDS011;33280;52.152;21.052;2023-04-25T09:06:36;7.93;;;6.80;;
47539;SDS011;33280;52.152;21.052;2023-04-25T09:09:07;9.00;;;7.03;;
47539;SDS011;33280;52.152;21.052;2023-04-25T09:11:35;8.57;;;6.57;;
47539;SDS011;33280;52.152;21.052;2023-04-25T09:14:16;8.83;;;6.73;;
47539;SDS011;33280;52.152;21.052;2023-04-25T09:19:27;8.57;;;6.97;;
47539;SDS011;33280;52.152;21.052;2023-04-25T09:22:07;8.03;;;6.40;;
47539;SDS011;33280;52.152;21.052;2023-04-25T09:24:42;7.50;;;6.00;;
47539;SDS011;33280;52.152;21.052;2023-04-25T09:27:11;8.00;;;6.20;;
47539;SDS011;33280;52.152;21.052;2023-04-25T09:29:44;7.60;;;5.90;;
47539;SDS011;33280;52.152;21.052;2023-04-25T09:32:19;7.87;;;6.20;;
47539;SDS011;33280;52.152;21.052;2023-04-25T09:34:48;9.80;;;6.80;;
47539;SDS011;33280;52.152;21.052;2023-04-25T09:37:20;8.77;;;6.83;;
47539;SDS011;33280;52.152;21.052;2023-04-25T09:39:55;8.10;;;6.53;;
47539;SDS011;33280;52.152;21.052;2023-04-25T09:45:42;8.73;;;6.60;;
47539;SDS011;33280;52.152;21.052;2023-04-25T09:48:17;8.93;;;6.23;;
47539;SDS011;33280;52.152;21.052;2023-04-25T09:50:45;10.07;;;6.13;;
47539;SDS011;33280;52.152;21.052;2023-04-25T09:53:29;7.80;;;6.57;;
47539;SDS011;33280;52.152;21.052;2023-04-25T09:55:59;7.00;;;5.90;;
47539;SDS011;33280;52.152;21.052;2023-04-25T09:58:27;9.03;;;6.47;;
47539;SDS011;33280;52.152;21.052;2023-04-25T10:01:02;8.97;;;7.00;;
47539;SDS011;33280;52.152;21.052;2023-04-25T10:03:32;8.27;;;6.80;;
47539;SDS011;33280;52.152;21.052;2023-04-25T10:06:04;9.43;;;6.97;;
47539;SDS011;33280;52.152;21.052;2023-04-25T10:08:35;8.63;;;7.10;;
47539;SDS011;33280;52.152;21.052;2023-04-25T10:11:04;11.23;;;7.90;;
47539;SDS011;33280;52.152;21.052;2023-04-25T10:13:34;9.13;;;7.30;;
47539;SDS011;33280;52.152;21.052;2023-04-25T10:19:47;9.97;;;7.50;;
47539;SDS011;33280;52.152;21.052;2023-04-25T10:22:18;9.40;;;7.47;;
47539;SDS011;33280;52.152;21.052;2023-04-25T10:24:52;13.47;;;7.90;;
47539;SDS011;33280;52.152;21.052;2023-04-25T10:27:19;12.83;;;7.90;;
47539;SDS011;33280;52.152;21.052;2023-04-25T10:29:59;11.67;;;7.97;;
47539;SDS011;33280;52.152;21.052;2023-04-25T10:32:31;10.50;;;7.97;;
47539;SDS011;33280;52.152;21.052;2023-04-25T10:37:56;11.50;;;7.57;;
47539;SDS011;33280;52.152;21.052;2023-04-25T10:40:35;11.50;;;7.87;;
47539;SDS011;33280;52.152;21.052;2023-04-25T10:46:00;10.40;;;7.87;;
47539;SDS011;33280;52.152;21.052;2023-04-25T10:48:31;11.40;;;8.60;;
47539;SDS011;33280;52.152;21.052;2023-04-25T10:51:10;11.23;;;8.73;;
47539;SDS011;33280;52.152;21.052;2023-04-25T10:53:43;12.17;;;8.87;;
47539;SDS011;33280;52.152;21.052;2023-04-25T10:56:23;11.10;;;8.83;;
47539;SDS011;33280;52.152;21.052;2023-04-25T10:59:02;11.20;;;9.10;;
47539;SDS011;33280;52.152;21.052;2023-04-25T11:01:38;12.17;;;9.50;;
47539;SDS011;33280;52.152;21.052;2023-04-25T11:09:37;11.27;;;9.17;;
47539;SDS011;33280;52.152;21.052;2023-04-25T11:12:09;10.03;;;8.10;;
47539;SDS011;33280;52.152;21.052;2023-04-25T11:14:40;9.17;;;7.57;;
47539;SDS011;33280;52.152;21.052;2023-04-25T11:17:07;12.70;;;8.00;;
47539;SDS011;33280;52.152;21.052;2023-04-25T11:19:35;11.13;;;8.73;;
47539;SDS011;33280;52.152;21.052;2023-04-25T11:22:09;9.30;;;7.70;;
47539;SDS011;33280;52.152;21.052;2023-04-25T11:27:26;10.67;;;7.63;;
47539;SDS011;33280;52.152;21.052;2023-04-25T11:29:53;11.73;;;8.00;;
47539;SDS011;33280;52.152;21.052;2023-04-25T11:32:20;12.67;;;8.17;;
47539;SDS011;33280;52.152;21.052;2023-04-25T11:34:48;10.87;;;8.13;;
47539;SDS011;33280;52.152;21.052;2023-04-25T11:37:15;8.93;;;7.37;;
47539;SDS011;33280;52.152;21.052;2023-04-25T11:39:42;10.23;;;7.27;;
47539;SDS011;33280;52.152;21.052;2023-04-25T11:42:14;12.77;;;7.50;;
47539;SDS011;33280;52.152;21.052;2023-04-25T11:44:41;9.73;;;7.53;;
47539;SDS011;33280;52.152;21.052;2023-04-25T11:47:08;11.13;;;7.70;;
47539;SDS011;33280;52.152;21.052;2023-04-25T11:49:36;10.23;;;7.57;;
47539;SDS011;33280;52.152;21.052;2023-04-25T11:52:03;11.57;;;7.77;;
47539;SDS011;33280;52.152;21.052;2023-04-25T11:54:36;9.60;;;7.10;;
47539;SDS011;33280;52.152;21.052;2023-04-25T11:57:04;12.17;;;7.63;;
47539;SDS011;33280;52.152;21.052;2023-04-25T11:59:31;11.00;;;7.90;;
47539;SDS011;33280;52.152;21.052;2023-04-25T12:01:58;8.27;;;6.83;;
47539;SDS011;33280;52.152;21.052;2023-04-25T12:04:29;10.13;;;6.87;;
47539;SDS011;33280;52.152;21.052;2023-04-25T12:07:00;9.30;;;7.30;;
47539;SDS011;33280;52.152;21.052;2023-04-25T12:09:32;9.40;;;7.63;;
47539;SDS011;33280;52.152;21.052;2023-04-25T12:12:00;8.43;;;6.93;;
47539;SDS011;33280;52.152;21.052;2023-04-25T12:14:32;8.20;;;6.57;;
47539;SDS011;33280;52.152;21.052;2023-04-25T12:17:02;10.27;;;7.07;;
47539;SDS011;33280;52.152;21.052;2023-04-25T12:19:37;8.87;;;7.10;;
47539;SDS011;33280;52.152;21.052;2023-04-25T12:22:19;9.10;;;7.20;;
47539;SDS011;33280;52.152;21.052;2023-04-25T12:24:47;7.97;;;6.67;;
47539;SDS011;33280;52.152;21.052;2023-04-25T12:27:15;7.33;;;6.50;;
47539;SDS011;33280;52.152;21.052;2023-04-25T12:29:52;10.20;;;6.20;;
47539;SDS011;33280;52.152;21.052;2023-04-25T12:32:21;6.30;;;5.60;;
47539;SDS011;33280;52.152;21.052;2023-04-25T12:34:48;7.13;;;5.13;;
47539;SDS011;33280;52.152;21.052;2023-04-25T12:37:16;7.43;;;5.20;;
47539;SDS011;33280;52.152;21.052;2023-04-25T12:39:43;7.37;;;5.50;;
47539;SDS011;33280;52.152;21.052;2023-04-25T12:42:10;7.63;;;5.37;;
47539;SDS011;33280;52.152;21.052;2023-04-25T12:44:40;6.70;;;5.43;;
47539;SDS011;33280;52.152;21.052;2023-04-25T12:47:07;7.13;;;5.37;;
47539;SDS011;33280;52.152;21.052;2023-04-25T12:49:34;7.53;;;5.97;;
47539;SDS011;33280;52.152;21.052;2023-04-25T12:52:01;8.27;;;5.30;;
47539;SDS011;33280;52.152;21.052;2023-04-25T12:54:28;6.43;;;5.17;;
47539;SDS011;33280;52.152;21.052;2023-04-25T12:56:55;6.50;;;5.17;;
47539;SDS011;33280;52.152;21.052;2023-04-25T12:59:22;6.40;;;5.40;;
47539;SDS011;33280;52.152;21.052;2023-04-25T13:01:49;8.27;;;5.30;;
47539;SDS011;33280;52.152;21.052;2023-04-25T13:04:16;7.10;;;5.30;;
47539;SDS011;33280;52.152;21.052;2023-04-25T13:06:47;6.23;;;5.10;;
47539;SDS011;33280;52.152;21.052;2023-04-25T13:09:14;7.17;;;5.47;;
47539;SDS011;33280;52.152;21.052;2023-04-25T13:11:42;7.00;;;5.60;;
47539;SDS011;33280;52.152;21.052;2023-04-25T13:14:09;6.83;;;5.60;;
47539;SDS011;33280;52.152;21.052;2023-04-25T13:16:36;7.83;;;5.90;;
47539;SDS011;33280;52.152;21.052;2023-04-25T13:19:03;6.97;;;5.70;;
47539;SDS011;33280;52.152;21.052;2023-04-25T13:21:30;6.70;;;5.80;;
47539;SDS011;33280;52.152;21.052;2023-04-25T13:24:17;8.43;;;5.67;;
47539;SDS011;33280;52.152;21.052;2023-04-25T13:26:44;7.30;;;5.40;;
47539;SDS011;33280;52.152;21.052;2023-04-25T13:29:11;8.37;;;5.50;;
47539;SDS011;33280;52.152;21.052;2023-04-25T13:31:38;6.33;;;4.70;;
47539;SDS011;33280;52.152;21.052;2023-04-25T13:34:04;6.87;;;5.13;;
47539;SDS011;33280;52.152;21.052;2023-04-25T13:36:32;7.60;;;5.63;;
47539;SDS011;33280;52.152;21.052;2023-04-25T13:38:59;5.23;;;4.40;;
47539;SDS011;33280;52.152;21.052;2023-04-25T13:41:26;5.77;;;4.37;;
47539;SDS011;33280;52.152;21.052;2023-04-25T13:43:53;5.40;;;4.67;;
47539;SDS011;33280;52.152;21.052;2023-04-25T13:46:21;6.57;;;4.87;;
47539;SDS011;33280;52.152;21.052;2023-04-25T13:49:14;8.13;;;5.37;;
47539;SDS011;33280;52.152;21.052;2023-04-25T13:51:42;5.97;;;4.47;;
47539;SDS011;33280;52.152;21.052;2023-04-25T13:54:09;5.90;;;4.60;;
47539;SDS011;33280;52.152;21.052;2023-04-25T13:56:36;6.87;;;4.70;;
47539;SDS011;33280;52.152;21.052;2023-04-25T13:59:03;6.43;;;5.40;;
47539;SDS011;33280;52.152;21.052;2023-04-25T14:01:30;6.93;;;5.67;;
47539;SDS011;33280;52.152;21.052;2023-04-25T14:04:01;6.20;;;5.23;;
47539;SDS011;33280;52.152;21.052;2023-04-25T14:06:30;7.70;;;5.50;;
47539;SDS011;33280;52.152;21.052;2023-04-25T14:08:58;8.23;;;5.70;;
47539;SDS011;33280;52.152;21.052;2023-04-25T14:11:27;7.93;;;5.40;;
47539;SDS011;33280;52.152;21.052;2023-04-25T14:13:54;7.00;;;5.20;;
47539;SDS011;33280;52.152;21.052;2023-04-25T14:16:21;8.90;;;6.07;;
47539;SDS011;33280;52.152;21.052;2023-04-25T14:18:49;7.13;;;5.50;;
47539;SDS011;33280;52.152;21.052;2023-04-25T14:21:16;7.93;;;5.63;;
47539;SDS011;33280;52.152;21.052;2023-04-25T14:23:43;7.77;;;5.90;;
47539;SDS011;33280;52.152;21.052;2023-04-25T14:26:10;7.47;;;6.00;;
47539;SDS011;33280;52.152;21.052;2023-04-25T14:28:39;6.80;;;5.13;;
47539;SDS011;33280;52.152;21.052;2023-04-25T14:31:11;7.17;;;5.67;;
47539;SDS011;33280;52.152;21.052;2023-04-25T14:33:41;7.23;;;5.77;;
47539;SDS011;33280;52.152;21.052;2023-04-25T14:39:04;11.97;;;6.17;;
47539;SDS011;33280;52.152;21.052;2023-04-25T14:45:00;11.00;;;7.37;;
47539;SDS011;33280;52.152;21.052;2023-04-25T14:47:30;9.77;;;6.90;;
47539;SDS011;33280;52.152;21.052;2023-04-25T14:50:22;8.53;;;6.50;;
47539;SDS011;33280;52.152;21.052;2023-04-25T14:52:49;8.03;;;6.07;;
47539;SDS011;33280;52.152;21.052;2023-04-25T14:58:17;8.10;;;6.40;;
47539;SDS011;33280;52.152;21.052;2023-04-25T15:00:45;8.90;;;6.60;;